sensor_id;sensor_type;location;lat;lon;timestamp;P1;P2;P0
75946;PMS5003;64628;50.104;14.614;2023-03-16T00:00:17;56;48;
75946;PMS5003;64628;50.104;14.614;2023-03-16T00:02:42;61;50;
75946;PMS5003;64628;50.104;14.614;2023-03-16T00:05:08;73;62;
75946;PMS5003;64628;50.104;14.614;2023-03-16T00:07:33;54;39;
75946;PMS5003;64628;50.104;14.614;2023-03-16T00:09:58;55;43;
75946;PMS5003;64628;50.104;14.614;2023-03-16T00:12:23;53;47;
75946;PMS5003;64628;50.104;14.614;2023-03-16T00:14:48;53;46;
75946;PMS5003;64628;50.104;14.614;2023-03-16T00:17:15;48;43;
75946;PMS5003;64628;50.104;14.614;2023-03-16T00:19:39;48;43;
75946;PMS5003;64628;50.104;14.614;2023-03-16T00:22:05;61;51;
75946;PMS5003;64628;50.104;14.614;2023-03-16T00:24:30;48;41;
75946;PMS5003;64628;50.104;14.614;2023-03-16T00:26:55;50;46;
75946;PMS5003;64628;50.104;14.614;2023-03-16T00:29:21;51;43;
75946;PMS5003;64628;50.104;14.614;2023-03-16T00:31:47;60;50;
75946;PMS5003;64628;50.104;14.614;2023-03-16T00:34:12;58;56;
75946;PMS5003;64628;50.104;14.614;2023-03-16T00:36:38;69;62;
75946;PMS5003;64628;50.104;14.614;2023-03-16T00:39:03;65;54;
75946;PMS5003;64628;50.104;14.614;2023-03-16T00:41:29;78;57;
75946;PMS5003;64628;50.104;14.614;2023-03-16T00:43:54;74;58;
75946;PMS5003;64628;50.104;14.614;2023-03-16T00:46:20;70;57;
75946;PMS5003;64628;50.104;14.614;2023-03-16T00:48:46;74;61;
75946;PMS5003;64628;50.104;14.614;2023-03-16T00:51:12;66;57;
75946;PMS5003;64628;50.104;14.614;2023-03-16T00:53:37;73;58;
75946;PMS5003;64628;50.104;14.614;2023-03-16T00:56:02;74;65;
75946;PMS5003;64628;50.104;14.614;2023-03-16T00:58:28;60;52;
75946;PMS5003;64628;50.104;14.614;2023-03-16T01:00:53;84;68;
75946;PMS5003;64628;50.104;14.614;2023-03-16T01:03:18;73;66;
75946;PMS5003;64628;50.104;14.614;2023-03-16T01:05:43;75;64;
75946;PMS5003;64628;50.104;14.614;2023-03-16T01:08:09;71;59;
75946;PMS5003;64628;50.104;14.614;2023-03-16T01:10:34;61;54;
75946;PMS5003;64628;50.104;14.614;2023-03-16T01:12:59;71;62;
75946;PMS5003;64628;50.104;14.614;2023-03-16T01:15:25;73;64;
75946;PMS5003;64628;50.104;14.614;2023-03-16T01:17:50;70;59;
75946;PMS5003;64628;50.104;14.614;2023-03-16T01:20:16;72;63;
75946;PMS5003;64628;50.104;14.614;2023-03-16T01:22:41;67;54;
75946;PMS5003;64628;50.104;14.614;2023-03-16T01:25:09;46;46;
75946;PMS5003;64628;50.104;14.614;2023-03-16T01:27:32;66;56;
75946;PMS5003;64628;50.104;14.614;2023-03-16T01:29:57;72;61;
75946;PMS5003;64628;50.104;14.614;2023-03-16T01:32:23;70;63;
75946;PMS5003;64628;50.104;14.614;2023-03-16T01:34:48;66;51;
75946;PMS5003;64628;50.104;14.614;2023-03-16T01:37:13;61;50;
75946;PMS5003;64628;50.104;14.614;2023-03-16T01:39:39;67;52;
75946;PMS5003;64628;50.104;14.614;2023-03-16T01:42:04;60;49;
75946;PMS5003;64628;50.104;14.614;2023-03-16T01:46:55;72;60;
75946;PMS5003;64628;50.104;14.614;2023-03-16T01:49:21;73;55;
75946;PMS5003;64628;50.104;14.614;2023-03-16T01:51:47;62;54;
75946;PMS5003;64628;50.104;14.614;2023-03-16T01:54:13;71;61;
75946;PMS5003;64628;50.104;14.614;2023-03-16T01:56:39;68;49;
75946;PMS5003;64628;50.104;14.614;2023-03-16T01:59:04;62;55;
75946;PMS5003;64628;50.104;14.614;2023-03-16T02:01:28;59;49;
75946;PMS5003;64628;50.104;14.614;2023-03-16T02:03:54;74;61;
75946;PMS5003;64628;50.104;14.614;2023-03-16T02:06:18;51;43;
75946;PMS5003;64628;50.104;14.614;2023-03-16T02:08:44;59;51;
75946;PMS5003;64628;50.104;14.614;2023-03-16T02:11:09;63;51;
75946;PMS5003;64628;50.104;14.614;2023-03-16T02:13:35;60;53;
75946;PMS5003;64628;50.104;14.614;2023-03-16T02:16:01;61;51;
75946;PMS5003;64628;50.104;14.614;2023-03-16T02:18:26;62;46;
75946;PMS5003;64628;50.104;14.614;2023-03-16T02:20:54;65;52;
75946;PMS5003;64628;50.104;14.614;2023-03-16T02:23:18;51;43;
75946;PMS5003;64628;50.104;14.614;2023-03-16T02:25:44;62;48;
75946;PMS5003;64628;50.104;14.614;2023-03-16T02:28:11;60;48;
75946;PMS5003;64628;50.104;14.614;2023-03-16T02:30:34;71;54;
75946;PMS5003;64628;50.104;14.614;2023-03-16T02:33:00;62;54;
75946;PMS5003;64628;50.104;14.614;2023-03-16T02:35:26;47;42;
75946;PMS5003;64628;50.104;14.614;2023-03-16T02:37:51;55;42;
75946;PMS5003;64628;50.104;14.614;2023-03-16T02:40:19;62;45;
75946;PMS5003;64628;50.104;14.614;2023-03-16T02:42:42;59;48;
75946;PMS5003;64628;50.104;14.614;2023-03-16T02:45:08;66;51;
75946;PMS5003;64628;50.104;14.614;2023-03-16T02:47:33;61;51;
75946;PMS5003;64628;50.104;14.614;2023-03-16T02:49:58;56;51;
75946;PMS5003;64628;50.104;14.614;2023-03-16T02:52:23;60;49;
75946;PMS5003;64628;50.104;14.614;2023-03-16T02:54:49;58;48;
75946;PMS5003;64628;50.104;14.614;2023-03-16T02:57:14;54;46;
75946;PMS5003;64628;50.104;14.614;2023-03-16T02:59:40;47;40;
75946;PMS5003;64628;50.104;14.614;2023-03-16T03:02:05;59;51;
75946;PMS5003;64628;50.104;14.614;2023-03-16T03:04:30;57;45;
75946;PMS5003;64628;50.104;14.614;2023-03-16T03:06:56;67;52;
75946;PMS5003;64628;50.104;14.614;2023-03-16T03:09:21;44;39;
75946;PMS5003;64628;50.104;14.614;2023-03-16T03:11:47;52;47;
75946;PMS5003;64628;50.104;14.614;2023-03-16T03:14:12;61;49;
75946;PMS5003;64628;50.104;14.614;2023-03-16T03:16:37;55;46;
75946;PMS5003;64628;50.104;14.614;2023-03-16T03:19:03;61;50;
75946;PMS5003;64628;50.104;14.614;2023-03-16T03:21:28;63;44;
75946;PMS5003;64628;50.104;14.614;2023-03-16T03:23:54;58;49;
75946;PMS5003;64628;50.104;14.614;2023-03-16T03:26:19;51;45;
75946;PMS5003;64628;50.104;14.614;2023-03-16T03:28:45;52;42;
75946;PMS5003;64628;50.104;14.614;2023-03-16T03:31:12;55;45;
75946;PMS5003;64628;50.104;14.614;2023-03-16T03:33:36;51;47;
75946;PMS5003;64628;50.104;14.614;2023-03-16T03:36:01;48;41;
75946;PMS5003;64628;50.104;14.614;2023-03-16T03:38:26;52;45;
75946;PMS5003;64628;50.104;14.614;2023-03-16T03:40:51;48;40;
75946;PMS5003;64628;50.104;14.614;2023-03-16T03:43:17;58;47;
75946;PMS5003;64628;50.104;14.614;2023-03-16T03:45:43;48;40;
75946;PMS5003;64628;50.104;14.614;2023-03-16T03:48:08;55;45;
75946;PMS5003;64628;50.104;14.614;2023-03-16T03:50:34;61;54;
75946;PMS5003;64628;50.104;14.614;2023-03-16T03:52:59;62;48;
75946;PMS5003;64628;50.104;14.614;2023-03-16T03:55:25;52;45;
75946;PMS5003;64628;50.104;14.614;2023-03-16T03:57:51;62;50;
75946;PMS5003;64628;50.104;14.614;2023-03-16T04:00:17;72;52;
75946;PMS5003;64628;50.104;14.614;2023-03-16T04:02:42;65;57;
75946;PMS5003;64628;50.104;14.614;2023-03-16T04:05:08;69;62;
75946;PMS5003;64628;50.104;14.614;2023-03-16T04:07:33;66;53;
75946;PMS5003;64628;50.104;14.614;2023-03-16T04:09:59;57;48;
75946;PMS5003;64628;50.104;14.614;2023-03-16T04:12:24;48;38;
75946;PMS5003;64628;50.104;14.614;2023-03-16T04:14:49;70;57;
75946;PMS5003;64628;50.104;14.614;2023-03-16T04:17:15;68;60;
75946;PMS5003;64628;50.104;14.614;2023-03-16T04:19:41;76;63;
75946;PMS5003;64628;50.104;14.614;2023-03-16T04:22:06;62;58;
75946;PMS5003;64628;50.104;14.614;2023-03-16T04:24:32;68;53;
75946;PMS5003;64628;50.104;14.614;2023-03-16T04:26:57;74;70;
75946;PMS5003;64628;50.104;14.614;2023-03-16T04:29:22;68;58;
75946;PMS5003;64628;50.104;14.614;2023-03-16T04:31:47;58;53;
75946;PMS5003;64628;50.104;14.614;2023-03-16T04:34:13;63;50;
75946;PMS5003;64628;50.104;14.614;2023-03-16T04:36:38;57;50;
75946;PMS5003;64628;50.104;14.614;2023-03-16T04:39:04;73;67;
75946;PMS5003;64628;50.104;14.614;2023-03-16T04:41:29;77;62;
75946;PMS5003;64628;50.104;14.614;2023-03-16T04:43:55;64;57;
75946;PMS5003;64628;50.104;14.614;2023-03-16T04:46:20;70;63;
75946;PMS5003;64628;50.104;14.614;2023-03-16T04:48:46;73;58;
75946;PMS5003;64628;50.104;14.614;2023-03-16T04:51:12;77;64;
75946;PMS5003;64628;50.104;14.614;2023-03-16T04:53:37;50;47;
75946;PMS5003;64628;50.104;14.614;2023-03-16T04:56:03;61;53;
75946;PMS5003;64628;50.104;14.614;2023-03-16T04:58:28;61;57;
75946;PMS5003;64628;50.104;14.614;2023-03-16T05:00:54;88;77;
75946;PMS5003;64628;50.104;14.614;2023-03-16T05:03:19;64;56;
75946;PMS5003;64628;50.104;14.614;2023-03-16T05:05:45;80;71;
75946;PMS5003;64628;50.104;14.614;2023-03-16T05:08:10;58;54;
75946;PMS5003;64628;50.104;14.614;2023-03-16T05:10:35;79;69;
75946;PMS5003;64628;50.104;14.614;2023-03-16T05:13:01;63;57;
75946;PMS5003;64628;50.104;14.614;2023-03-16T05:15:26;69;57;
75946;PMS5003;64628;50.104;14.614;2023-03-16T05:17:52;79;60;
75946;PMS5003;64628;50.104;14.614;2023-03-16T05:20:17;76;62;
75946;PMS5003;64628;50.104;14.614;2023-03-16T05:22:43;94;84;
75946;PMS5003;64628;50.104;14.614;2023-03-16T05:25:08;84;68;
75946;PMS5003;64628;50.104;14.614;2023-03-16T05:27:33;71;55;
75946;PMS5003;64628;50.104;14.614;2023-03-16T05:29:59;65;54;
75946;PMS5003;64628;50.104;14.614;2023-03-16T05:32:24;64;57;
75946;PMS5003;64628;50.104;14.614;2023-03-16T05:34:49;58;48;
75946;PMS5003;64628;50.104;14.614;2023-03-16T05:37:15;64;52;
75946;PMS5003;64628;50.104;14.614;2023-03-16T05:39:40;65;50;
75946;PMS5003;64628;50.104;14.614;2023-03-16T05:42:06;68;51;
75946;PMS5003;64628;50.104;14.614;2023-03-16T05:44:31;58;52;
75946;PMS5003;64628;50.104;14.614;2023-03-16T05:46:57;54;50;
75946;PMS5003;64628;50.104;14.614;2023-03-16T05:49:22;52;43;
75946;PMS5003;64628;50.104;14.614;2023-03-16T05:51:48;58;45;
75946;PMS5003;64628;50.104;14.614;2023-03-16T05:54:13;46;41;
75946;PMS5003;64628;50.104;14.614;2023-03-16T05:56:38;42;39;
75946;PMS5003;64628;50.104;14.614;2023-03-16T05:59:04;59;50;
75946;PMS5003;64628;50.104;14.614;2023-03-16T06:01:30;57;43;
75946;PMS5003;64628;50.104;14.614;2023-03-16T06:03:55;52;47;
75946;PMS5003;64628;50.104;14.614;2023-03-16T06:06:20;50;37;
75946;PMS5003;64628;50.104;14.614;2023-03-16T06:08:45;57;48;
75946;PMS5003;64628;50.104;14.614;2023-03-16T06:11:11;56;43;
75946;PMS5003;64628;50.104;14.614;2023-03-16T06:13:36;53;40;
75946;PMS5003;64628;50.104;14.614;2023-03-16T06:16:01;55;49;
75946;PMS5003;64628;50.104;14.614;2023-03-16T06:18:26;58;43;
75946;PMS5003;64628;50.104;14.614;2023-03-16T06:20:52;63;50;
75946;PMS5003;64628;50.104;14.614;2023-03-16T06:23:17;57;50;
75946;PMS5003;64628;50.104;14.614;2023-03-16T06:25:43;48;39;
75946;PMS5003;64628;50.104;14.614;2023-03-16T06:28:08;60;42;
75946;PMS5003;64628;50.104;14.614;2023-03-16T06:30:34;49;41;
75946;PMS5003;64628;50.104;14.614;2023-03-16T06:32:59;46;38;
75946;PMS5003;64628;50.104;14.614;2023-03-16T06:35:25;38;34;
75946;PMS5003;64628;50.104;14.614;2023-03-16T06:37:51;36;34;
75946;PMS5003;64628;50.104;14.614;2023-03-16T06:40:17;42;37;
75946;PMS5003;64628;50.104;14.614;2023-03-16T06:42:42;41;34;
75946;PMS5003;64628;50.104;14.614;2023-03-16T06:45:08;41;35;
75946;PMS5003;64628;50.104;14.614;2023-03-16T06:47:33;36;31;
75946;PMS5003;64628;50.104;14.614;2023-03-16T06:49:58;38;33;
75946;PMS5003;64628;50.104;14.614;2023-03-16T06:52:24;26;22;
75946;PMS5003;64628;50.104;14.614;2023-03-16T06:54:49;26;24;
75946;PMS5003;64628;50.104;14.614;2023-03-16T06:57:15;31;28;
75946;PMS5003;64628;50.104;14.614;2023-03-16T06:59:40;40;29;
75946;PMS5003;64628;50.104;14.614;2023-03-16T07:02:05;30;27;
75946;PMS5003;64628;50.104;14.614;2023-03-16T07:04:31;36;28;
75946;PMS5003;64628;50.104;14.614;2023-03-16T07:06:56;44;34;
75946;PMS5003;64628;50.104;14.614;2023-03-16T07:09:21;44;35;
75946;PMS5003;64628;50.104;14.614;2023-03-16T07:11:47;30;29;
75946;PMS5003;64628;50.104;14.614;2023-03-16T07:14:12;36;33;
75946;PMS5003;64628;50.104;14.614;2023-03-16T07:16:37;51;38;
75946;PMS5003;64628;50.104;14.614;2023-03-16T07:19:03;54;53;
75946;PMS5003;64628;50.104;14.614;2023-03-16T07:21:29;37;34;
75946;PMS5003;64628;50.104;14.614;2023-03-16T07:23:53;37;31;
75946;PMS5003;64628;50.104;14.614;2023-03-16T07:26:19;39;37;
75946;PMS5003;64628;50.104;14.614;2023-03-16T07:28:45;38;32;
75946;PMS5003;64628;50.104;14.614;2023-03-16T07:31:10;49;36;
75946;PMS5003;64628;50.104;14.614;2023-03-16T07:33:35;34;32;
75946;PMS5003;64628;50.104;14.614;2023-03-16T07:36:00;41;34;
75946;PMS5003;64628;50.104;14.614;2023-03-16T07:38:26;31;29;
75946;PMS5003;64628;50.104;14.614;2023-03-16T07:40:51;38;35;
75946;PMS5003;64628;50.104;14.614;2023-03-16T07:43:16;34;33;
75946;PMS5003;64628;50.104;14.614;2023-03-16T07:45:41;51;42;
75946;PMS5003;64628;50.104;14.614;2023-03-16T07:48:07;32;30;
75946;PMS5003;64628;50.104;14.614;2023-03-16T07:50:32;46;45;
75946;PMS5003;64628;50.104;14.614;2023-03-16T07:52:58;41;41;
75946;PMS5003;64628;50.104;14.614;2023-03-16T07:55:23;41;38;
75946;PMS5003;64628;50.104;14.614;2023-03-16T07:57:48;36;34;
75946;PMS5003;64628;50.104;14.614;2023-03-16T08:00:14;41;35;
75946;PMS5003;64628;50.104;14.614;2023-03-16T08:02:39;31;28;
75946;PMS5003;64628;50.104;14.614;2023-03-16T08:05:04;42;34;
75946;PMS5003;64628;50.104;14.614;2023-03-16T08:07:30;35;34;
75946;PMS5003;64628;50.104;14.614;2023-03-16T08:09:55;38;34;
75946;PMS5003;64628;50.104;14.614;2023-03-16T08:12:21;35;34;
75946;PMS5003;64628;50.104;14.614;2023-03-16T08:14:46;32;29;
75946;PMS5003;64628;50.104;14.614;2023-03-16T08:17:12;40;32;
75946;PMS5003;64628;50.104;14.614;2023-03-16T08:19:37;30;28;
75946;PMS5003;64628;50.104;14.614;2023-03-16T08:22:02;31;30;
75946;PMS5003;64628;50.104;14.614;2023-03-16T08:24:28;25;25;
75946;PMS5003;64628;50.104;14.614;2023-03-16T08:26:53;25;25;
75946;PMS5003;64628;50.104;14.614;2023-03-16T08:29:18;30;25;
75946;PMS5003;64628;50.104;14.614;2023-03-16T08:31:44;26;24;
75946;PMS5003;64628;50.104;14.614;2023-03-16T08:34:10;24;24;
75946;PMS5003;64628;50.104;14.614;2023-03-16T08:36:35;27;26;
75946;PMS5003;64628;50.104;14.614;2023-03-16T08:39:01;26;23;
75946;PMS5003;64628;50.104;14.614;2023-03-16T08:41:26;21;19;
75946;PMS5003;64628;50.104;14.614;2023-03-16T08:43:51;30;26;
75946;PMS5003;64628;50.104;14.614;2023-03-16T08:46:16;30;29;
75946;PMS5003;64628;50.104;14.614;2023-03-16T08:48:42;27;24;
75946;PMS5003;64628;50.104;14.614;2023-03-16T08:51:08;24;22;
75946;PMS5003;64628;50.104;14.614;2023-03-16T08:53:33;21;20;
75946;PMS5003;64628;50.104;14.614;2023-03-16T08:56:00;26;20;
75946;PMS5003;64628;50.104;14.614;2023-03-16T08:58:24;83;78;
75946;PMS5003;64628;50.104;14.614;2023-03-16T09:00:50;20;15;
75946;PMS5003;64628;50.104;14.614;2023-03-16T09:03:15;15;14;
75946;PMS5003;64628;50.104;14.614;2023-03-16T09:05:40;18;15;
75946;PMS5003;64628;50.104;14.614;2023-03-16T09:08:06;23;19;
75946;PMS5003;64628;50.104;14.614;2023-03-16T09:10:32;15;14;
75946;PMS5003;64628;50.104;14.614;2023-03-16T09:12:57;16;13;
75946;PMS5003;64628;50.104;14.614;2023-03-16T09:15:22;15;14;
75946;PMS5003;64628;50.104;14.614;2023-03-16T09:17:47;14;11;
75946;PMS5003;64628;50.104;14.614;2023-03-16T09:20:13;11;11;
75946;PMS5003;64628;50.104;14.614;2023-03-16T09:22:38;15;12;
75946;PMS5003;64628;50.104;14.614;2023-03-16T09:25:03;9;9;
75946;PMS5003;64628;50.104;14.614;2023-03-16T09:27:28;10;7;
75946;PMS5003;64628;50.104;14.614;2023-03-16T09:29:54;13;13;
75946;PMS5003;64628;50.104;14.614;2023-03-16T09:32:19;11;10;
75946;PMS5003;64628;50.104;14.614;2023-03-16T09:34:45;13;10;
75946;PMS5003;64628;50.104;14.614;2023-03-16T09:37:10;17;16;
75946;PMS5003;64628;50.104;14.614;2023-03-16T09:39:36;14;10;
75946;PMS5003;64628;50.104;14.614;2023-03-16T09:42:02;10;10;
75946;PMS5003;64628;50.104;14.614;2023-03-16T09:44:30;8;6;
75946;PMS5003;64628;50.104;14.614;2023-03-16T09:46:52;10;9;
75946;PMS5003;64628;50.104;14.614;2023-03-16T09:49:18;13;12;
75946;PMS5003;64628;50.104;14.614;2023-03-16T09:51:46;10;10;
75946;PMS5003;64628;50.104;14.614;2023-03-16T09:54:12;13;12;
75946;PMS5003;64628;50.104;14.614;2023-03-16T09:56:35;10;10;
75946;PMS5003;64628;50.104;14.614;2023-03-16T09:59:00;7;6;
75946;PMS5003;64628;50.104;14.614;2023-03-16T10:01:30;10;9;
75946;PMS5003;64628;50.104;14.614;2023-03-16T10:03:54;8;8;
75946;PMS5003;64628;50.104;14.614;2023-03-16T10:06:17;9;9;
75946;PMS5003;64628;50.104;14.614;2023-03-16T10:08:44;11;8;
75946;PMS5003;64628;50.104;14.614;2023-03-16T10:11:13;6;6;
75946;PMS5003;64628;50.104;14.614;2023-03-16T10:13:36;9;8;
75946;PMS5003;64628;50.104;14.614;2023-03-16T10:16:01;7;7;
75946;PMS5003;64628;50.104;14.614;2023-03-16T10:18:27;6;6;
75946;PMS5003;64628;50.104;14.614;2023-03-16T10:20:51;6;6;
75946;PMS5003;64628;50.104;14.614;2023-03-16T10:23:17;9;9;
75946;PMS5003;64628;50.104;14.614;2023-03-16T10:25:43;6;6;
75946;PMS5003;64628;50.104;14.614;2023-03-16T10:28:09;8;8;
75946;PMS5003;64628;50.104;14.614;2023-03-16T10:30:34;9;9;
75946;PMS5003;64628;50.104;14.614;2023-03-16T10:33:00;11;7;
75946;PMS5003;64628;50.104;14.614;2023-03-16T10:35:29;12;9;
75946;PMS5003;64628;50.104;14.614;2023-03-16T10:37:51;14;14;
75946;PMS5003;64628;50.104;14.614;2023-03-16T10:40:17;23;23;
75946;PMS5003;64628;50.104;14.614;2023-03-16T10:42:42;30;28;
75946;PMS5003;64628;50.104;14.614;2023-03-16T10:47:33;72;70;
75946;PMS5003;64628;50.104;14.614;2023-03-16T10:52:27;37;37;
75946;PMS5003;64628;50.104;14.614;2023-03-16T10:54:50;8;7;
75946;PMS5003;64628;50.104;14.614;2023-03-16T10:57:19;7;7;
75946;PMS5003;64628;50.104;14.614;2023-03-16T10:59:46;8;8;
75946;PMS5003;64628;50.104;14.614;2023-03-16T11:02:13;9;8;
75946;PMS5003;64628;50.104;14.614;2023-03-16T11:04:31;13;13;
75946;PMS5003;64628;50.104;14.614;2023-03-16T11:06:56;63;60;
75946;PMS5003;64628;50.104;14.614;2023-03-16T11:09:22;89;89;
75946;PMS5003;64628;50.104;14.614;2023-03-16T11:11:47;51;49;
75946;PMS5003;64628;50.104;14.614;2023-03-16T11:14:13;24;24;
75946;PMS5003;64628;50.104;14.614;2023-03-16T11:16:38;37;36;
75946;PMS5003;64628;50.104;14.614;2023-03-16T11:19:05;35;35;
75946;PMS5003;64628;50.104;14.614;2023-03-16T11:21:36;126;124;
75946;PMS5003;64628;50.104;14.614;2023-03-16T11:23:55;319;319;
75946;PMS5003;64628;50.104;14.614;2023-03-16T11:26:21;264;262;
75946;PMS5003;64628;50.104;14.614;2023-03-16T11:28:45;170;167;
75946;PMS5003;64628;50.104;14.614;2023-03-16T11:31:12;266;262;
75946;PMS5003;64628;50.104;14.614;2023-03-16T11:33:40;184;182;
75946;PMS5003;64628;50.104;14.614;2023-03-16T11:36:05;145;144;
75946;PMS5003;64628;50.104;14.614;2023-03-16T11:38:28;100;97;
75946;PMS5003;64628;50.104;14.614;2023-03-16T11:40:55;9;5;
75946;PMS5003;64628;50.104;14.614;2023-03-16T11:43:21;5;5;
75946;PMS5003;64628;50.104;14.614;2023-03-16T11:45:43;7;7;
75946;PMS5003;64628;50.104;14.614;2023-03-16T11:48:15;6;4;
75946;PMS5003;64628;50.104;14.614;2023-03-16T11:50:36;8;8;
75946;PMS5003;64628;50.104;14.614;2023-03-16T11:53:01;6;5;
75946;PMS5003;64628;50.104;14.614;2023-03-16T11:55:28;11;7;
75946;PMS5003;64628;50.104;14.614;2023-03-16T11:57:54;13;9;
75946;PMS5003;64628;50.104;14.614;2023-03-16T12:00:19;8;7;
75946;PMS5003;64628;50.104;14.614;2023-03-16T12:02:46;6;5;
75946;PMS5003;64628;50.104;14.614;2023-03-16T12:07:37;6;6;
75946;PMS5003;64628;50.104;14.614;2023-03-16T12:10:08;8;7;
75946;PMS5003;64628;50.104;14.614;2023-03-16T12:12:28;7;6;
75946;PMS5003;64628;50.104;14.614;2023-03-16T12:14:50;7;5;
75946;PMS5003;64628;50.104;14.614;2023-03-16T12:17:15;11;7;
75946;PMS5003;64628;50.104;14.614;2023-03-16T12:19:41;8;7;
75946;PMS5003;64628;50.104;14.614;2023-03-16T12:22:06;8;6;
75946;PMS5003;64628;50.104;14.614;2023-03-16T12:24:33;11;10;
75946;PMS5003;64628;50.104;14.614;2023-03-16T12:26:56;6;4;
75946;PMS5003;64628;50.104;14.614;2023-03-16T12:29:23;7;5;
75946;PMS5003;64628;50.104;14.614;2023-03-16T12:31:48;6;5;
75946;PMS5003;64628;50.104;14.614;2023-03-16T12:34:15;9;7;
75946;PMS5003;64628;50.104;14.614;2023-03-16T12:36:43;8;7;
75946;PMS5003;64628;50.104;14.614;2023-03-16T12:39:03;6;6;
75946;PMS5003;64628;50.104;14.614;2023-03-16T12:41:29;6;5;
75946;PMS5003;64628;50.104;14.614;2023-03-16T12:44:05;7;5;
75946;PMS5003;64628;50.104;14.614;2023-03-16T12:46:21;6;5;
75946;PMS5003;64628;50.104;14.614;2023-03-16T12:48:44;5;5;
75946;PMS5003;64628;50.104;14.614;2023-03-16T12:51:09;5;5;
75946;PMS5003;64628;50.104;14.614;2023-03-16T12:53:39;6;6;
75946;PMS5003;64628;50.104;14.614;2023-03-16T12:55:59;11;6;
75946;PMS5003;64628;50.104;14.614;2023-03-16T12:58:25;6;6;
75946;PMS5003;64628;50.104;14.614;2023-03-16T13:00:55;4;4;
75946;PMS5003;64628;50.104;14.614;2023-03-16T13:03:15;11;8;
75946;PMS5003;64628;50.104;14.614;2023-03-16T13:05:43;6;6;
75946;PMS5003;64628;50.104;14.614;2023-03-16T13:08:07;6;5;
75946;PMS5003;64628;50.104;14.614;2023-03-16T13:10:31;5;5;
75946;PMS5003;64628;50.104;14.614;2023-03-16T13:15:27;7;7;
75946;PMS5003;64628;50.104;14.614;2023-03-16T13:17:48;7;7;
75946;PMS5003;64628;50.104;14.614;2023-03-16T13:20:23;7;7;
75946;PMS5003;64628;50.104;14.614;2023-03-16T13:22:42;9;6;
75946;PMS5003;64628;50.104;14.614;2023-03-16T13:27:31;7;6;
75946;PMS5003;64628;50.104;14.614;2023-03-16T13:29:56;7;7;
75946;PMS5003;64628;50.104;14.614;2023-03-16T13:32:20;9;7;
75946;PMS5003;64628;50.104;14.614;2023-03-16T13:34:46;11;6;
75946;PMS5003;64628;50.104;14.614;2023-03-16T13:37:11;6;5;
75946;PMS5003;64628;50.104;14.614;2023-03-16T13:39:36;9;7;
75946;PMS5003;64628;50.104;14.614;2023-03-16T13:42:02;5;5;
75946;PMS5003;64628;50.104;14.614;2023-03-16T13:44:27;8;5;
75946;PMS5003;64628;50.104;14.614;2023-03-16T13:46:52;5;5;
75946;PMS5003;64628;50.104;14.614;2023-03-16T13:49:17;9;3;
75946;PMS5003;64628;50.104;14.614;2023-03-16T13:51:43;6;5;
75946;PMS5003;64628;50.104;14.614;2023-03-16T13:54:15;5;4;
75946;PMS5003;64628;50.104;14.614;2023-03-16T13:56:34;10;5;
75946;PMS5003;64628;50.104;14.614;2023-03-16T13:58:59;9;5;
75946;PMS5003;64628;50.104;14.614;2023-03-16T14:01:25;9;5;
75946;PMS5003;64628;50.104;14.614;2023-03-16T14:03:50;5;5;
75946;PMS5003;64628;50.104;14.614;2023-03-16T14:06:17;6;5;
75946;PMS5003;64628;50.104;14.614;2023-03-16T14:08:41;5;5;
75946;PMS5003;64628;50.104;14.614;2023-03-16T14:11:07;8;5;
75946;PMS5003;64628;50.104;14.614;2023-03-16T14:13:32;5;5;
75946;PMS5003;64628;50.104;14.614;2023-03-16T14:15:58;6;6;
75946;PMS5003;64628;50.104;14.614;2023-03-16T14:18:23;10;8;
75946;PMS5003;64628;50.104;14.614;2023-03-16T14:20:49;8;6;
75946;PMS5003;64628;50.104;14.614;2023-03-16T14:23:15;8;4;
75946;PMS5003;64628;50.104;14.614;2023-03-16T14:25:38;6;5;
75946;PMS5003;64628;50.104;14.614;2023-03-16T14:28:05;5;5;
75946;PMS5003;64628;50.104;14.614;2023-03-16T14:30:29;6;4;
75946;PMS5003;64628;50.104;14.614;2023-03-16T14:32:56;12;4;
75946;PMS5003;64628;50.104;14.614;2023-03-16T14:35:20;6;6;
75946;PMS5003;64628;50.104;14.614;2023-03-16T14:37:45;11;6;
75946;PMS5003;64628;50.104;14.614;2023-03-16T14:42:35;6;5;
75946;PMS5003;64628;50.104;14.614;2023-03-16T14:45:02;6;4;
75946;PMS5003;64628;50.104;14.614;2023-03-16T14:47:27;6;5;
75946;PMS5003;64628;50.104;14.614;2023-03-16T14:49:51;3;3;
75946;PMS5003;64628;50.104;14.614;2023-03-16T14:52:20;5;5;
75946;PMS5003;64628;50.104;14.614;2023-03-16T14:54:42;5;5;
75946;PMS5003;64628;50.104;14.614;2023-03-16T14:57:11;6;5;
75946;PMS5003;64628;50.104;14.614;2023-03-16T14:59:33;6;4;
75946;PMS5003;64628;50.104;14.614;2023-03-16T15:01:58;4;4;
75946;PMS5003;64628;50.104;14.614;2023-03-16T15:04:24;7;6;
75946;PMS5003;64628;50.104;14.614;2023-03-16T15:06:49;4;4;
75946;PMS5003;64628;50.104;14.614;2023-03-16T15:09:18;6;5;
75946;PMS5003;64628;50.104;14.614;2023-03-16T15:11:39;5;3;
75946;PMS5003;64628;50.104;14.614;2023-03-16T15:14:06;9;4;
75946;PMS5003;64628;50.104;14.614;2023-03-16T15:16:30;4;3;
75946;PMS5003;64628;50.104;14.614;2023-03-16T15:18:56;4;4;
75946;PMS5003;64628;50.104;14.614;2023-03-16T15:21:22;5;4;
75946;PMS5003;64628;50.104;14.614;2023-03-16T15:23:46;6;5;
75946;PMS5003;64628;50.104;14.614;2023-03-16T15:26:12;7;4;
75946;PMS5003;64628;50.104;14.614;2023-03-16T15:28:37;4;4;
75946;PMS5003;64628;50.104;14.614;2023-03-16T15:31:02;6;6;
75946;PMS5003;64628;50.104;14.614;2023-03-16T15:33:28;6;4;
75946;PMS5003;64628;50.104;14.614;2023-03-16T15:35:54;16;13;
75946;PMS5003;64628;50.104;14.614;2023-03-16T15:38:20;4;4;
75946;PMS5003;64628;50.104;14.614;2023-03-16T15:40:44;5;5;
75946;PMS5003;64628;50.104;14.614;2023-03-16T15:43:09;5;5;
75946;PMS5003;64628;50.104;14.614;2023-03-16T15:45:34;6;6;
75946;PMS5003;64628;50.104;14.614;2023-03-16T15:48:00;4;3;
75946;PMS5003;64628;50.104;14.614;2023-03-16T15:50:25;5;5;
75946;PMS5003;64628;50.104;14.614;2023-03-16T15:52:51;9;6;
75946;PMS5003;64628;50.104;14.614;2023-03-16T15:55:17;9;5;
75946;PMS5003;64628;50.104;14.614;2023-03-16T15:57:41;6;5;
75946;PMS5003;64628;50.104;14.614;2023-03-16T16:00:09;10;6;
75946;PMS5003;64628;50.104;14.614;2023-03-16T16:02:31;9;6;
75946;PMS5003;64628;50.104;14.614;2023-03-16T16:04:57;4;4;
75946;PMS5003;64628;50.104;14.614;2023-03-16T16:07:22;4;4;
75946;PMS5003;64628;50.104;14.614;2023-03-16T16:09:47;5;4;
75946;PMS5003;64628;50.104;14.614;2023-03-16T16:12:13;9;8;
75946;PMS5003;64628;50.104;14.614;2023-03-16T16:14:38;21;18;